createdAt,value
2022-10-07T00:00:51.294Z,101037.75
2022-10-07T00:03:19.935Z,101038.59
2022-10-07T00:05:47.961Z,101033.38
2022-10-07T00:08:20.326Z,101035.09
2022-10-07T00:10:48.406Z,100690.81
2022-10-07T00:13:16.369Z,101042.88
2022-10-07T00:15:44.180Z,101033.25
2022-10-07T00:18:12.417Z,101022.66
2022-10-07T00:20:40.371Z,101023.53
2022-10-07T00:23:09.523Z,101029.63
2022-10-07T00:25:38.733Z,101028.72
2022-10-07T00:28:06.804Z,101033.06
2022-10-07T00:30:34.733Z,101028.69
2022-10-07T00:33:02.697Z,101026.88
2022-10-07T00:35:30.553Z,101013.75
2022-10-07T00:37:58.489Z,101025.09
2022-10-07T00:40:26.096Z,101024.22
2022-10-07T00:42:55.249Z,101018.03
2022-10-07T00:45:22.829Z,101013.63
2022-10-07T00:47:51.612Z,101007.44
2022-10-07T00:50:21.681Z,101012.72
2022-10-07T00:52:51.190Z,101013.56
2022-10-07T00:55:19.993Z,101000.34
2022-10-07T00:57:47.965Z,101003.03
2022-10-07T01:00:17.127Z,100996.00
2022-10-07T01:02:45.177Z,100997.75
2022-10-07T01:05:14.154Z,100990.75
2022-10-07T01:07:42.211Z,100989.84
2022-10-07T01:10:11.635Z,100981.88
2022-10-07T01:12:47.489Z,100986.25
2022-10-07T01:15:19.280Z,100980.19
2022-10-07T01:17:50.292Z,100979.28
2022-10-07T01:20:23.381Z,100975.78
2022-10-07T01:23:00.427Z,100967.03
2022-10-07T01:25:35.529Z,100965.31
2022-10-07T01:28:08.090Z,100947.78
2022-10-07T01:30:38.776Z,100965.34
2022-10-07T01:33:06.681Z,100965.34
2022-10-07T01:35:35.503Z,100965.34
2022-10-07T01:38:05.505Z,100958.38
2022-10-07T01:40:34.697Z,100961.88
2022-10-07T01:43:03.653Z,100947.00
2022-10-07T01:45:32.567Z,100926.78
2022-10-07T01:48:00.206Z,100937.38
2022-10-07T01:50:30.019Z,100931.94
2022-10-07T01:53:12.954Z,100931.25
2022-10-07T01:55:49.457Z,100902.25
2022-10-07T01:58:31.309Z,100914.47
2022-10-07T02:01:02.138Z,100919.81
2022-10-07T02:03:47.716Z,100912.78
2022-10-07T02:06:19.500Z,100910.16
2022-10-07T02:08:49.007Z,100907.53
2022-10-07T02:11:18.648Z,100904.00
2022-10-07T02:13:55.707Z,100893.44
2022-10-07T02:16:24.976Z,100877.66
2022-10-07T02:18:53.025Z,100893.53
2022-10-07T02:21:21.882Z,100893.53
2022-10-07T02:23:49.663Z,100894.38
2022-10-07T02:26:19.381Z,100891.78
2022-10-07T02:28:47.125Z,100899.63
2022-10-07T02:31:18.130Z,100889.09
2022-10-07T02:33:47.053Z,100886.50
2022-10-07T02:36:16.727Z,100879.47
2022-10-07T02:38:44.579Z,100878.56
2022-10-07T02:41:14.141Z,100882.06
2022-10-07T02:43:44.861Z,100849.53
2022-10-07T02:46:14.179Z,100886.44
2022-10-07T02:48:45.101Z,100883.78
2022-10-07T02:51:21.073Z,100860.03
2022-10-07T02:53:50.860Z,100825.91
2022-10-07T02:56:18.702Z,100867.16
2022-10-07T02:58:46.453Z,100860.09
2022-10-07T03:01:16.990Z,100869.75
2022-10-07T03:03:46.068Z,100847.88
2022-10-07T03:06:13.941Z,100861.88
2022-10-07T03:08:41.735Z,100855.75
2022-10-07T03:11:09.786Z,100841.78
2022-10-07T03:13:37.472Z,100833.91
2022-10-07T03:16:05.743Z,100840.03
2022-10-07T03:18:33.463Z,100839.13
2022-10-07T03:21:04.108Z,100833.03
2022-10-07T03:23:31.710Z,100829.56
2022-10-07T03:25:59.729Z,100785.59
2022-10-07T03:28:31.208Z,100832.19
2022-10-07T03:31:04.959Z,100835.66
2022-10-07T03:33:32.693Z,100835.63
2022-10-07T03:36:00.401Z,100831.31
2022-10-07T03:38:29.431Z,100827.78
2022-10-07T03:40:57.158Z,100819.00
2022-10-07T03:43:26.267Z,100798.91
2022-10-07T03:45:53.971Z,100825.16
2022-10-07T03:48:21.607Z,100819.94
2022-10-07T03:50:50.439Z,100822.56
2022-10-07T03:53:18.138Z,100815.50
2022-10-07T03:55:47.152Z,100826.91
2022-10-07T03:58:14.852Z,100814.72
2022-10-07T04:00:42.609Z,100819.94
2022-10-07T04:03:10.319Z,100818.19
2022-10-07T04:05:38.210Z,100821.69
2022-10-07T04:08:06.666Z,100775.25
2022-10-07T04:10:35.654Z,100763.78
2022-10-07T04:13:04.685Z,100797.16
2022-10-07T04:15:32.442Z,100811.19
2022-10-07T04:18:00.056Z,100795.44
2022-10-07T04:20:27.827Z,100801.59
2022-10-07T04:22:55.463Z,100807.69
2022-10-07T04:27:52.399Z,100798.06
2022-10-07T04:30:21.531Z,100796.34
2022-10-07T04:32:50.703Z,100788.44
2022-10-07T04:35:18.356Z,100794.63
2022-10-07T04:37:46.454Z,100791.97
2022-10-07T04:40:14.431Z,100796.34
2022-10-07T04:42:59.297Z,100793.75
2022-10-07T04:45:28.254Z,100786.72
2022-10-07T04:47:55.999Z,100796.34
2022-10-07T04:50:23.566Z,100774.47
2022-10-07T04:52:51.320Z,100791.97
2022-10-07T04:55:18.902Z,100789.34
2022-10-07T04:57:47.040Z,100778.00
2022-10-07T05:00:15.216Z,100791.09
2022-10-07T05:02:46.343Z,100789.34
2022-10-07T05:05:14.072Z,100786.72
2022-10-07T05:07:41.851Z,100792.84
2022-10-07T05:10:11.058Z,100773.56
2022-10-07T05:12:41.478Z,100785.81
2022-10-07T05:15:10.246Z,100781.41
2022-10-07T05:17:38.188Z,100734.06
2022-10-07T05:20:08.363Z,100764.81
2022-10-07T05:22:36.232Z,100763.03
2022-10-07T05:25:03.944Z,100770.00
2022-10-07T05:27:32.433Z,100773.53
2022-10-07T05:30:00.197Z,100763.91
2022-10-07T05:32:28.282Z,100764.78
2022-10-07T05:34:56.373Z,100760.44
2022-10-07T05:37:25.494Z,100765.66
2022-10-07T05:39:53.273Z,100758.69
2022-10-07T05:42:20.858Z,100770.09
2022-10-07T05:44:48.665Z,100765.72
2022-10-07T05:47:18.214Z,100764.88
2022-10-07T05:49:46.037Z,100763.13
2022-10-07T05:52:13.699Z,100756.19
2022-10-07T05:54:43.949Z,100757.81
2022-10-07T05:57:11.599Z,100751.81
2022-10-07T05:59:39.313Z,100746.56
2022-10-07T06:02:07.040Z,100751.00
2022-10-07T06:04:37.100Z,100744.94
2022-10-07T06:07:05.386Z,100739.72
2022-10-07T06:09:55.625Z,100741.50
2022-10-07T06:12:44.517Z,100746.69
2022-10-07T06:15:12.168Z,100735.44
2022-10-07T06:17:44.724Z,100735.53
2022-10-07T06:20:13.188Z,100741.69
2022-10-07T06:22:42.965Z,100748.72
2022-10-07T06:25:10.931Z,100748.75
2022-10-07T06:27:40.016Z,100733.94
2022-10-07T06:30:09.403Z,100732.25
2022-10-07T06:32:37.129Z,100738.50
2022-10-07T06:35:06.880Z,100747.34
2022-10-07T06:37:34.479Z,100739.66
2022-10-07T06:40:12.217Z,100729.25
2022-10-07T06:42:41.398Z,100738.00
2022-10-07T06:45:24.115Z,100733.47
2022-10-07T06:47:52.817Z,100733.25
2022-10-07T06:50:24.937Z,100731.16
2022-10-07T06:52:52.804Z,100731.59
2022-10-07T06:55:20.451Z,100737.28
2022-10-07T06:57:49.530Z,100731.41
2022-10-07T07:00:17.462Z,100739.41
2022-10-07T07:02:45.397Z,100738.50
2022-10-07T07:05:14.930Z,100746.53
2022-10-07T07:07:43.250Z,100739.44
2022-10-07T07:10:11.141Z,100713.28
2022-10-07T07:12:38.879Z,100740.13
2022-10-07T07:15:09.065Z,100744.19
2022-10-07T07:17:36.939Z,100749.34
2022-10-07T07:20:05.030Z,100734.84
2022-10-07T07:22:38.213Z,100738.72
2022-10-07T07:25:06.639Z,100737.41
2022-10-07T07:27:34.255Z,100734.69
2022-10-07T07:30:02.623Z,100707.41
2022-10-07T07:32:31.581Z,100661.09
2022-10-07T07:35:02.027Z,100728.91
2022-10-07T07:37:30.199Z,100732.09
2022-10-07T07:39:58.018Z,100734.25
2022-10-07T07:42:25.782Z,100720.63
2022-10-07T07:44:53.573Z,100727.50
2022-10-07T07:47:21.213Z,100729.13
2022-10-07T07:49:51.132Z,100728.88
2022-10-07T07:52:18.722Z,100723.16
2022-10-07T07:54:47.886Z,100713.34
2022-10-07T07:57:15.485Z,100713.41
2022-10-07T07:59:43.329Z,100712.13
2022-10-07T08:02:12.131Z,100707.00
2022-10-07T08:04:40.073Z,100714.44
2022-10-07T08:07:11.394Z,100694.78
2022-10-07T08:09:40.247Z,100700.88
2022-10-07T08:12:08.029Z,100714.22
2022-10-07T08:14:36.130Z,100710.72
2022-10-07T08:23:19.635Z,100623.25
2022-10-07T08:25:48.174Z,100711.06
2022-10-07T08:28:17.460Z,100724.88
2022-10-07T08:38:48.207Z,100538.47
2022-10-07T09:15:35.421Z,100666.47
2022-10-07T09:18:06.937Z,100667.41
2022-10-07T09:20:36.673Z,100663.19
2022-10-07T09:23:05.653Z,100599.81
2022-10-07T09:25:35.575Z,100643.72
2022-10-07T09:28:04.099Z,100602.00
2022-10-07T09:47:14.254Z,100533.03
2022-10-07T09:50:24.847Z,100536.66
2022-10-07T10:25:20.379Z,100598.41
2022-10-07T10:27:52.060Z,100597.69
2022-10-07T10:30:22.019Z,100497.88
2022-10-07T10:33:11.592Z,100228.88
2022-10-07T10:35:42.218Z,100425.19
2022-10-07T10:38:28.972Z,100589.88
2022-10-07T10:41:02.825Z,100277.66
2022-10-07T10:43:34.556Z,100488.28
2022-10-07T10:46:12.770Z,100252.81
2022-10-07T10:48:44.579Z,100303.72
2022-10-07T10:51:21.461Z,100325.97
2022-10-07T10:53:52.330Z,100333.81
2022-10-07T10:56:27.898Z,100577.44
2022-10-07T10:59:03.508Z,100325.69
2022-10-07T11:01:33.979Z,100573.53
2022-10-07T11:04:25.973Z,100514.28
2022-10-07T11:06:55.670Z,100526.50
2022-10-07T11:09:31.201Z,100564.66
2022-10-07T11:12:02.836Z,100405.97
2022-10-07T11:14:31.326Z,100412.44
2022-10-07T11:17:02.549Z,100270.75
2022-10-07T11:19:32.273Z,100298.72
2022-10-07T11:22:01.079Z,100469.84
2022-10-07T11:24:30.351Z,100487.91
2022-10-07T11:27:03.117Z,100374.88
2022-10-07T11:29:35.400Z,100132.75
2022-10-07T11:32:04.976Z,100455.19
2022-10-07T11:34:37.184Z,100234.94
2022-10-07T11:37:07.213Z,100507.44
2022-10-07T11:39:37.516Z,100460.97
2022-10-07T11:42:13.162Z,100178.22
2022-10-07T11:44:43.078Z,100317.34
2022-10-07T11:47:12.635Z,100394.50
2022-10-07T11:49:42.215Z,100288.13
2022-10-07T11:52:12.497Z,100410.66
2022-10-07T11:54:41.833Z,100351.59
2022-10-07T11:57:19.969Z,100429.19
2022-10-07T11:59:49.165Z,100212.03
2022-10-07T12:02:39.238Z,100425.19
2022-10-07T12:05:08.135Z,100419.31
2022-10-07T12:07:40.955Z,100045.03
2022-10-07T12:10:22.082Z,100368.16
2022-10-07T12:12:55.912Z,100030.97
2022-10-07T12:15:26.348Z,99980.25
2022-10-07T12:17:58.259Z,99987.91
2022-10-07T12:20:46.493Z,100204.91
2022-10-07T12:23:51.230Z,100368.91
2022-10-07T12:26:50.241Z,100191.31
2022-10-07T12:29:33.654Z,100282.88
2022-10-07T12:32:01.609Z,100223.09
2022-10-07T12:34:41.133Z,100077.41
2022-10-07T12:37:43.344Z,100356.41
2022-10-07T12:40:15.981Z,100248.69
2022-10-07T12:42:47.768Z,100276.75
2022-10-07T12:45:17.401Z,99965.53
2022-10-07T12:47:48.514Z,99963.28
2022-10-07T12:50:16.704Z,100244.06
2022-10-07T12:52:46.958Z,100382.19
2022-10-07T12:55:16.277Z,100101.97
2022-10-07T12:57:44.393Z,100187.31
2022-10-07T13:00:13.343Z,100284.16
2022-10-07T13:03:31.800Z,100274.41
2022-10-07T13:06:36.750Z,100142.94
2022-10-07T13:09:16.078Z,100136.59
2022-10-07T13:12:18.905Z,100331.41
2022-10-07T13:14:51.869Z,100055.34
2022-10-07T13:17:36.833Z,99940.41
2022-10-07T13:20:25.906Z,100090.84
2022-10-07T13:22:53.828Z,100265.44
2022-10-07T13:25:21.987Z,100227.78
2022-10-07T13:27:53.566Z,100051.31
2022-10-07T13:30:35.658Z,100066.13
2022-10-07T13:33:18.962Z,100264.78
2022-10-07T13:35:48.427Z,100267.91
2022-10-07T13:38:26.727Z,100213.03
2022-10-07T13:40:56.401Z,100337.69
2022-10-07T13:43:28.053Z,100262.03
2022-10-07T13:45:56.524Z,100080.34
2022-10-07T13:48:25.817Z,100143.72
2022-10-07T13:50:58.480Z,100155.16
2022-10-07T13:53:28.689Z,100097.38
2022-10-07T13:56:08.277Z,100234.69
2022-10-07T13:58:35.988Z,100186.50
2022-10-07T14:01:05.614Z,100176.28
2022-10-07T14:03:35.580Z,100164.59
2022-10-07T14:06:05.325Z,100035.06
2022-10-07T14:08:34.361Z,100222.47
2022-10-07T14:13:55.140Z,100309.72
2022-10-07T14:16:25.298Z,100294.03
2022-10-07T14:18:53.476Z,100101.59
2022-10-07T14:21:23.273Z,99764.34
2022-10-07T14:23:51.588Z,100158.22
2022-10-07T14:26:19.497Z,99972.16
2022-10-07T14:28:47.406Z,100182.19
2022-10-07T14:31:39.292Z,99990.34
2022-10-07T14:34:30.762Z,100056.75
2022-10-07T14:37:03.857Z,100237.66
2022-10-07T14:39:33.566Z,100186.31
2022-10-07T14:42:01.595Z,99916.84
2022-10-07T14:44:31.427Z,99940.81
2022-10-07T14:47:06.645Z,100159.34
2022-10-07T14:49:34.507Z,100124.38
2022-10-07T14:52:06.319Z,100172.44
2022-10-07T14:54:37.366Z,100135.25
2022-10-07T14:57:05.158Z,100141.72
2022-10-07T14:59:32.957Z,99996.47
2022-10-07T15:02:00.983Z,99926.09
2022-10-07T15:04:28.759Z,100153.97
2022-10-07T15:06:56.433Z,100052.03
2022-10-07T15:09:26.594Z,100140.41
2022-10-07T15:12:01.489Z,100159.41
2022-10-07T15:14:29.481Z,100147.34
2022-10-07T15:16:57.404Z,100135.16
2022-10-07T15:19:26.280Z,100040.41
2022-10-07T15:21:56.224Z,99825.75
2022-10-07T15:24:24.133Z,100157.06
2022-10-07T15:26:53.253Z,100113.63
2022-10-07T15:29:22.744Z,100087.13
2022-10-07T15:31:50.507Z,100087.69
2022-10-07T15:34:18.272Z,100109.44
2022-10-07T15:36:49.059Z,100104.47
2022-10-07T15:39:16.725Z,100108.19
2022-10-07T15:41:45.059Z,100048.63
2022-10-07T15:44:17.185Z,100052.38
2022-10-07T15:46:45.842Z,100094.50
2022-10-07T15:49:13.618Z,100099.94
2022-10-07T15:51:41.711Z,100100.00
2022-10-07T15:54:26.446Z,100047.69
2022-10-07T15:56:54.177Z,100096.00
2022-10-07T15:59:23.414Z,100115.09
2022-10-07T16:01:52.454Z,100055.16
2022-10-07T16:04:20.335Z,100083.09
2022-10-07T16:06:51.350Z,99983.53
2022-10-07T16:09:19.277Z,100076.88
2022-10-07T16:11:47.581Z,100054.00
2022-10-07T16:14:16.817Z,100052.06
2022-10-07T16:16:46.165Z,100128.81
2022-10-07T16:19:14.199Z,100128.09
2022-10-07T16:21:52.873Z,100076.94
2022-10-07T16:24:21.605Z,100064.94
2022-10-07T16:26:50.551Z,99844.28
2022-10-07T16:29:40.138Z,99973.88
2022-10-07T16:32:10.556Z,99973.84
2022-10-07T16:34:38.838Z,100019.09
2022-10-07T16:37:07.316Z,100066.28
2022-10-07T16:49:47.061Z,99672.25
2022-10-07T16:52:42.468Z,100101.69
2022-10-07T16:59:01.994Z,100037.13
2022-10-07T17:01:32.009Z,100056.50
2022-10-07T17:04:00.227Z,100056.03
2022-10-07T17:06:29.383Z,100041.97
2022-10-07T17:08:59.549Z,100070.84
2022-10-07T17:11:29.988Z,100065.81
2022-10-07T17:13:58.394Z,100063.50
2022-10-07T17:16:26.652Z,100062.91
2022-10-07T17:18:54.368Z,100060.59
2022-10-07T17:21:22.293Z,100043.00
2022-10-07T17:23:49.961Z,100065.44
2022-10-07T17:26:20.778Z,100070.09
2022-10-07T17:28:49.681Z,100064.06
2022-10-07T17:31:18.063Z,100059.94
2022-10-07T17:33:46.090Z,100023.78
2022-10-07T17:36:15.038Z,100068.28
2022-10-07T17:38:43.509Z,100065.00
2022-10-07T17:41:12.406Z,100059.94
2022-10-07T17:43:41.440Z,100050.75
2022-10-07T17:46:12.699Z,100063.84
2022-10-07T17:48:43.113Z,100022.97
2022-10-07T17:51:11.195Z,100071.28
2022-10-07T17:53:40.313Z,100075.00
2022-10-07T17:56:10.022Z,100025.13
2022-10-07T17:58:38.157Z,100064.38
2022-10-07T18:01:08.147Z,100072.03
2022-10-07T18:03:37.747Z,100069.88
2022-10-07T18:06:07.039Z,100074.16
2022-10-07T18:08:35.300Z,100070.84
2022-10-07T18:11:03.770Z,100065.88
2022-10-07T18:13:49.600Z,100043.50
2022-10-07T18:16:18.704Z,100082.03
2022-10-07T18:18:54.391Z,100015.28
2022-10-07T18:21:22.405Z,100056.09
2022-10-07T18:23:52.546Z,100034.84
2022-10-07T18:26:20.280Z,100075.53
2022-10-07T18:28:47.905Z,100054.00
2022-10-07T18:31:16.504Z,100011.78
2022-10-07T18:33:46.314Z,100062.00
2022-10-07T18:36:16.070Z,100051.09
2022-10-07T18:38:45.867Z,100070.22
2022-10-07T18:41:14.421Z,100012.28
2022-10-07T18:43:42.464Z,100039.38
2022-10-07T18:46:11.955Z,100055.28
2022-10-07T18:48:40.258Z,100060.13
2022-10-07T18:51:09.625Z,100062.91
2022-10-07T18:53:38.333Z,100034.34
2022-10-07T18:56:07.064Z,100049.94
2022-10-07T18:58:34.831Z,100051.81
2022-10-07T19:01:06.711Z,100007.97
2022-10-07T19:03:34.729Z,100052.03
2022-10-07T19:06:05.875Z,100053.06
2022-10-07T19:08:34.873Z,100052.25
2022-10-07T19:11:06.290Z,100055.81
2022-10-07T19:13:50.389Z,100050.63
2022-10-07T19:16:18.833Z,100051.59
2022-10-07T19:18:46.889Z,100052.59
2022-10-07T19:21:15.347Z,100042.97
2022-10-07T19:23:44.479Z,100016.22
2022-10-07T19:26:12.862Z,100037.91
2022-10-07T19:28:41.077Z,99782.44
2022-10-07T19:31:13.326Z,100075.94
2022-10-07T19:33:42.787Z,100033.09
2022-10-07T19:36:10.973Z,99976.13
2022-10-07T19:38:43.264Z,99981.22
2022-10-07T19:41:13.372Z,100049.06
2022-10-07T19:43:42.775Z,100046.47
2022-10-07T19:46:11.037Z,100033.53
2022-10-07T19:48:39.811Z,99915.19
2022-10-07T19:51:09.399Z,99938.94
2022-10-07T19:53:37.470Z,100055.56
2022-10-07T19:56:07.366Z,99944.31
2022-10-07T19:58:38.238Z,99961.97
2022-10-07T20:01:06.853Z,99961.53
2022-10-07T20:03:34.971Z,99999.84
2022-10-07T20:06:05.569Z,99874.75
2022-10-07T20:08:34.260Z,99911.47
2022-10-07T20:11:02.482Z,100058.69
2022-10-07T20:13:32.736Z,100011.53
2022-10-07T20:16:06.449Z,99906.66
2022-10-07T20:18:34.642Z,99985.44
2022-10-07T20:21:03.501Z,100004.09
2022-10-07T20:23:33.997Z,100036.84
2022-10-07T20:26:06.591Z,100111.63
2022-10-07T20:28:37.597Z,99944.50
2022-10-07T20:31:08.474Z,99846.72
2022-10-07T20:33:39.015Z,100009.97
2022-10-07T20:36:08.407Z,99953.41
2022-10-07T20:38:50.310Z,99965.44
2022-10-07T20:41:35.549Z,99934.44
2022-10-07T20:44:03.612Z,99967.84
2022-10-07T20:46:33.415Z,100064.94
2022-10-07T20:49:01.407Z,100010.81
2022-10-07T20:51:30.584Z,100051.59
2022-10-07T20:53:58.526Z,100092.09
2022-10-07T20:56:27.773Z,100031.69
2022-10-07T20:58:55.854Z,99977.63
2022-10-07T21:01:24.738Z,99912.84
2022-10-07T21:03:54.186Z,100036.41
2022-10-07T21:06:23.398Z,100098.63
2022-10-07T21:08:56.348Z,99895.91
2022-10-07T21:11:25.527Z,99868.66
2022-10-07T21:13:55.112Z,99941.59
2022-10-07T21:16:24.376Z,100081.38
2022-10-07T21:19:08.643Z,99907.44
2022-10-07T21:21:45.828Z,99828.19
2022-10-07T21:24:16.309Z,99944.16
2022-10-07T21:26:52.410Z,99897.66
2022-10-07T21:29:39.185Z,99976.38
2022-10-07T21:32:41.367Z,100038.59
2022-10-07T21:35:18.875Z,99860.16
2022-10-07T21:37:52.705Z,99915.41
2022-10-07T21:41:40.206Z,100123.91
2022-10-07T21:44:11.107Z,99897.22
2022-10-07T21:46:47.845Z,99659.88
2022-10-07T21:49:36.622Z,100019.59
2022-10-07T21:52:10.266Z,99589.78
2022-10-07T21:54:41.519Z,99962.88
2022-10-07T21:57:20.272Z,99683.44
2022-10-07T21:59:55.390Z,100006.41
2022-10-07T22:02:28.484Z,99806.97
2022-10-07T22:05:16.529Z,99861.88
2022-10-07T22:08:15.395Z,99836.91
2022-10-07T22:10:51.661Z,99694.81
2022-10-07T22:13:33.111Z,99835.03
2022-10-07T22:16:22.449Z,99922.41
2022-10-07T22:19:16.265Z,99995.81
2022-10-07T22:22:20.622Z,99833.88
2022-10-07T22:25:17.232Z,99826.03
2022-10-07T22:28:15.820Z,99823.91
2022-10-07T22:31:05.377Z,99871.41
2022-10-07T22:34:00.371Z,99540.81
2022-10-07T22:36:43.979Z,99696.66
2022-10-07T22:39:36.195Z,99841.41
2022-10-07T22:44:58.075Z,99766.31
2022-10-07T22:59:19.431Z,99490.50
2022-10-07T23:05:49.493Z,99837.16
2022-10-07T23:12:00.543Z,99691.50
2022-10-07T23:15:04.425Z,99626.09
2022-10-07T23:21:35.495Z,99976.16
2022-10-07T23:24:20.337Z,99830.59
2022-10-07T23:26:52.722Z,99963.78
2022-10-07T23:32:33.969Z,99963.66
2022-10-07T23:35:01.569Z,99964.56
2022-10-07T23:37:30.665Z,99946.16
2022-10-07T23:39:58.260Z,99941.03
2022-10-07T23:42:25.989Z,99953.13
2022-10-07T23:44:53.586Z,99944.31
2022-10-07T23:47:24.931Z,99926.06
2022-10-07T23:49:52.489Z,99933.13
2022-10-07T23:52:22.166Z,99775.69
2022-10-07T23:54:52.346Z,99859.06
